Lester B. Pearson International Airport
CYYZ : rendu visible

Aérodrome :











RETROUVEZ-NOUS SUR...

 
LOGIN :

S'inscrire | Disclaimer

   EN    FR    IT 

 









Légende :    VFR   VFR Marginal   IFR   IFR Intensif   IFR Très Intensif
Visi : 
Plafond : 
>= 8 km
>= 3000ft
5 à 8 km
1000 à 3000 ft
1500m à 5 km
500 à 1000 ft
800 à 1500m
200 à 500 ft
< 800m
< 200 ft
Symboles :   Orages  Brouillard  Fortes neiges  Fortes précipitations  Vent > 20 kt






- Altitude de l'aérodrome : 569 ft
- Code IATA : YYZ


CYYZ - Lester B. Pearson International

DERNIER METAR :
  • 242200Z 08019KT 15SM -RA BKN060 OVC100 02/M02 A3008 RMK SC5AC3 SLP196

METARs EXPIRÉS :
  • 242149Z 09018G26KT 15SM -RA BKN055 OVC070 02/M02 A3009 RMK SC5AC3 SLP198
  • 242100Z 09014G23KT 15SM SCT070 BKN100 03/M02 A3010 RMK AC4AC3 SLP201
  • 242000Z 08015G24KT 15SM FEW070 BKN100 03/M03 A3011 RMK AC2AC5 SLP207

TAF TAF CYYZ
Valide du 24 à 21h jusqu'au 26 à 00h UTC


242038Z 2421/2524 08012G22KT P6SM BKN100
FM242200 07010G20KT P6SM OVC060
TEMPO 2422/2424 P6SM -RA OVC030
FM250000 08012KT 6SM -RA BR OVC015
TEMPO 2500/2503 4SM RA BR OVC008
FM250300 08012KT 4SM RA BR OVC008
PROB30 2503/2506 2SM -RA BR OVC003
FM250600 09015KT 3SM -RA BR OVC004
PROB40 2506/2509 2SM -RA BR OVC003
FM250900 09015KT 2SM -RA -DZ BR OVC003
FM251200 09015KT 3SM -RASN BR OVC004
FM251400 08012KT 2SM -SN BR BKN004 OVC012
BECMG 2522/2524 28010KT RMK NXT FCST BY 250000Z



MET'MAP, la Météo Aéronautique d'un coup d'oeil ! - Copyright ORBIFLY Décembre 2007 - Disclaimer

ORBIFLY MET'MAP TEAM :

Programmation & Développement : Alexandra Zaïnal
Sur une idée originale de : Baudouin d'Aumeries
Assistance à la programmation : Marc-Olivier Méhu
Soutien technique & logistique : Manuel Goepfert

Contact : metmap@orbifly.com




SOURCES & CREDITS :

   NOAA       Earth
Advisory